Time;durP1;ratioP1;P1;durP2;ratioP2;P2;SDS_P1;SDS_P2;PMS_P1;PMS_P2;Temp;Humidity;BMP_temperature;BMP_pressure;BME280_temperature;BME280_humidity;BME280_pressure;Samples;Min_cycle;Max_cycle;Signal;HPM_P1;HPM_P2
2021/10/14 00:02:21;;;;;;;5.22;4.82;;;;;;;4.18;89.71;96633.16;6366595;22;20071;-60
2021/10/14 00:04:47;;;;;;;5.80;4.93;;;;;;;4.07;90.32;96640.69;6366746;22;20002;-61
2021/10/14 00:07:12;;;;;;;8.27;4.97;;;;;;;4.06;91.15;96631.19;6366959;22;20022;-60
2021/10/14 00:09:38;;;;;;;5.13;4.72;;;;;;;3.99;92.17;96635.88;6366538;22;20006;-61
2021/10/14 00:12:04;;;;;;;5.90;4.93;;;;;;;3.95;91.74;96637.81;6365993;22;20120;-61
2021/10/14 00:14:29;;;;;;;5.40;4.85;;;;;;;3.94;91.39;96630.03;6365011;22;20021;-61
2021/10/14 00:16:56;;;;;;;7.78;4.38;;;;;;;3.94;91.19;96627.44;6366895;22;20006;-60
2021/10/14 00:19:21;;;;;;;6.10;5.50;;;;;;;4.00;90.69;96632.38;6366511;22;20102;-60
2021/10/14 00:21:47;;;;;;;6.65;4.47;;;;;;;3.97;90.68;96637.69;6365926;22;20030;-61
2021/10/14 00:24:12;;;;;;;5.13;4.70;;;;;;;3.96;90.96;96639.47;6366371;22;20030;-61
2021/10/14 00:26:38;;;;;;;4.78;4.25;;;;;;;3.94;90.97;96638.72;6366568;22;19998;-61
2021/10/14 00:29:03;;;;;;;5.05;4.25;;;;;;;3.93;91.84;96638.78;6366034;22;20002;-61
2021/10/14 00:31:28;;;;;;;4.35;4.05;;;;;;;3.94;92.15;96641.31;6366456;22;20017;-61
2021/10/14 00:33:54;;;;;;;5.07;4.63;;;;;;;4.00;90.92;96638.41;6366287;22;20051;-61
2021/10/14 00:36:21;;;;;;;4.78;4.07;;;;;;;3.99;90.82;96634.13;6366545;22;20006;-61
2021/10/14 00:38:46;;;;;;;5.43;4.40;;;;;;;3.95;90.89;96645.63;6365862;22;20002;-61
2021/10/14 00:41:14;;;;;;;5.85;4.75;;;;;;;3.92;90.90;96642.31;6365682;22;20010;-61
2021/10/14 00:43:40;;;;;;;5.47;4.97;;;;;;;3.92;90.83;96643.16;6366193;22;20123;-61
2021/10/14 00:46:14;;;;;;;4.97;4.57;;;;;;;3.95;90.77;96644.75;6365338;22;20433;-61
2021/10/14 00:48:39;;;;;;;4.70;4.40;;;;;;;3.98;91.16;96649.84;6366560;22;20002;-61
2021/10/14 00:51:04;;;;;;;4.95;4.55;;;;;;;3.94;91.76;96648.28;6364937;22;20014;-61
2021/10/14 00:53:30;;;;;;;4.72;4.18;;;;;;;3.88;91.92;96654.66;6366204;22;20002;-61
2021/10/14 00:55:55;;;;;;;5.72;5.28;;;;;;;3.80;92.29;96656.78;6365938;22;20006;-61
2021/10/14 00:58:21;;;;;;;7.07;5.80;;;;;;;3.79;92.74;96662.94;6366841;22;20007;-60
2021/10/14 01:00:46;;;;;;;7.15;6.13;;;;;;;3.79;92.99;96653.38;6366055;22;20490;-61
2021/10/14 01:03:12;;;;;;;6.13;4.70;;;;;;;3.86;92.02;96651.28;6366081;22;20037;-61
2021/10/14 01:05:37;;;;;;;5.03;4.63;;;;;;;3.90;92.02;96649.38;6366140;22;20376;-61
2021/10/14 01:08:03;;;;;;;5.38;4.80;;;;;;;3.91;91.80;96646.69;6365790;22;20006;-61
2021/10/14 01:10:28;;;;;;;6.75;4.63;;;;;;;3.94;91.79;96643.06;6365650;22;19999;-61
2021/10/14 01:12:54;;;;;;;5.25;4.80;;;;;;;3.95;92.87;96643.00;6365867;22;19998;-61
2021/10/14 01:15:24;;;;;;;5.88;5.38;;;;;;;3.96;92.66;96644.69;6365652;22;20006;-61
2021/10/14 01:17:50;;;;;;;8.95;5.50;;;;;;;4.01;92.75;96642.69;6365990;22;20450;-61
2021/10/14 01:20:15;;;;;;;8.27;6.10;;;;;;;4.09;91.72;96638.84;6365374;22;20021;-61
2021/10/14 01:22:41;;;;;;;7.07;6.38;;;;;;;4.05;92.01;96632.09;6365583;22;20483;-61
2021/10/14 01:25:07;;;;;;;6.72;5.90;;;;;;;4.04;92.29;96636.50;6365343;22;20002;-61
2021/10/14 01:27:32;;;;;;;6.40;5.78;;;;;;;4.03;92.20;96633.94;6365805;22;20013;-61
2021/10/14 01:29:58;;;;;;;6.90;5.43;;;;;;;4.00;92.69;96640.19;6366071;22;20002;-61
2021/10/14 01:32:23;;;;;;;6.60;5.43;;;;;;;4.04;92.53;96638.25;6366297;22;20006;-61
2021/10/14 01:34:49;;;;;;;6.95;5.55;;;;;;;4.06;92.67;96632.03;6365537;22;20010;-61
2021/10/14 01:37:14;;;;;;;6.45;5.80;;;;;;;4.09;92.91;96628.41;6363914;22;20018;-61
2021/10/14 01:39:40;;;;;;;5.22;4.72;;;;;;;4.14;92.32;96627.25;6365173;22;20033;-60
2021/10/14 01:42:05;;;;;;;5.00;4.40;;;;;;;4.19;92.15;96624.44;6363888;22;20318;-60
2021/10/14 01:44:30;;;;;;;5.53;5.00;;;;;;;4.24;92.13;96627.63;6363131;22;20073;-61
2021/10/14 01:46:56;;;;;;;5.07;4.68;;;;;;;4.32;91.51;96623.81;6364059;22;20008;-61
2021/10/14 01:49:21;;;;;;;5.28;4.88;;;;;;;4.36;91.10;96625.31;6364276;22;20014;-61
2021/10/14 01:51:47;;;;;;;8.18;4.25;;;;;;;4.38;91.35;96613.88;6364860;22;20395;-61
2021/10/14 01:54:12;;;;;;;5.40;4.97;;;;;;;4.46;90.77;96610.84;6362546;22;20014;-61
2021/10/14 01:56:37;;;;;;;5.05;4.55;;;;;;;4.52;91.19;96615.75;6363894;22;20006;-61
2021/10/14 01:59:03;;;;;;;4.97;4.57;;;;;;;4.56;91.33;96617.28;6364310;22;19998;-61
2021/10/14 02:01:28;;;;;;;5.88;4.85;;;;;;;4.53;91.31;96612.25;6365317;22;20006;-60
2021/10/14 02:03:54;;;;;;;4.38;3.97;;;;;;;4.52;92.08;96612.31;6364170;22;20006;-61
2021/10/14 02:06:19;;;;;;;4.72;4.40;;;;;;;4.58;91.74;96611.97;6364201;22;20007;-61
2021/10/14 02:08:44;;;;;;;4.50;4.20;;;;;;;4.58;92.65;96612.81;6364680;22;19999;-61
2021/10/14 02:11:10;;;;;;;5.22;4.13;;;;;;;4.60;92.79;96612.72;6363857;22;20067;-61
2021/10/14 02:13:36;;;;;;;6.18;4.22;;;;;;;4.66;92.91;96616.78;6365026;22;20010;-61
2021/10/14 02:16:02;;;;;;;4.72;4.32;;;;;;;4.68;93.04;96612.31;6364204;22;20030;-61
2021/10/14 02:18:27;;;;;;;4.65;4.25;;;;;;;4.71;92.86;96623.44;6364795;22;20006;-61
2021/10/14 02:20:53;;;;;;;6.57;5.75;;;;;;;4.75;92.56;96629.31;6363789;22;20003;-61
2021/10/14 02:23:18;;;;;;;10.93;7.57;;;;;;;4.82;92.34;96629.84;6364182;22;20006;-61
2021/10/14 02:25:43;;;;;;;10.52;8.15;;;;;;;4.86;92.16;96628.72;6363280;22;20347;-61
2021/10/14 02:28:09;;;;;;;14.80;8.55;;;;;;;4.93;91.97;96624.03;6363902;22;20026;-61
2021/10/14 02:30:35;;;;;;;10.85;7.10;;;;;;;4.99;92.43;96623.72;6363731;22;20007;-61
2021/10/14 02:33:01;;;;;;;6.45;5.22;;;;;;;5.00;92.77;96625.41;6364562;22;20434;-60
2021/10/14 02:35:26;;;;;;;5.85;5.00;;;;;;;5.02;92.80;96633.97;6364482;22;20002;-61
2021/10/14 02:37:52;;;;;;;5.80;5.20;;;;;;;5.04;92.56;96626.91;6363390;22;20458;-61
2021/10/14 02:40:17;;;;;;;6.07;4.97;;;;;;;5.04;91.65;96634.75;6363995;22;20450;-61
2021/10/14 02:42:43;;;;;;;6.70;5.20;;;;;;;5.06;91.06;96624.19;6364445;22;20390;-61
2021/10/14 02:45:08;;;;;;;5.85;4.95;;;;;;;5.12;89.73;96629.09;6363751;22;20427;-61
2021/10/14 02:47:34;;;;;;;4.63;4.00;;;;;;;5.16;89.22;96626.22;6364554;22;20081;-61
2021/10/14 02:49:59;;;;;;;4.65;4.03;;;;;;;5.23;88.29;96631.13;6364083;22;20009;-61
2021/10/14 02:52:24;;;;;;;4.45;3.90;;;;;;;5.27;87.77;96637.84;6364245;22;20395;-61
2021/10/14 02:54:50;;;;;;;4.65;4.05;;;;;;;5.29;88.08;96630.75;6363862;22;20002;-61
2021/10/14 02:57:15;;;;;;;4.07;3.67;;;;;;;5.30;88.12;96629.84;6363174;22;20006;-61
2021/10/14 02:59:41;;;;;;;6.43;3.88;;;;;;;5.29;87.90;96633.38;6364229;22;20006;-61
2021/10/14 03:02:06;;;;;;;4.40;3.97;;;;;;;5.26;87.10;96625.72;6363476;22;20002;-61
2021/10/14 03:04:31;;;;;;;3.72;3.42;;;;;;;5.22;87.31;96629.44;6364144;22;20007;-61
2021/10/14 03:06:57;;;;;;;3.95;3.65;;;;;;;5.19;87.67;96629.56;6363807;22;20427;-61
2021/10/14 03:09:22;;;;;;;3.58;3.28;;;;;;;5.19;88.28;96630.44;6363710;22;20014;-61
2021/10/14 03:11:47;;;;;;;6.10;3.70;;;;;;;5.19;88.36;96632.19;6363981;22;19998;-61
2021/10/14 03:14:13;;;;;;;4.15;3.75;;;;;;;5.20;88.99;96632.13;6363516;22;20276;-61
2021/10/14 03:16:38;;;;;;;5.93;3.80;;;;;;;5.22;88.62;96639.88;6363756;22;20093;-61
2021/10/14 03:19:03;;;;;;;3.55;3.25;;;;;;;5.24;87.80;96646.69;6363939;22;20461;-61
2021/10/14 03:21:29;;;;;;;3.88;3.58;;;;;;;5.27;88.00;96637.84;6365744;22;20009;-61
2021/10/14 03:23:54;;;;;;;3.40;3.20;;;;;;;5.29;87.48;96642.03;6365761;22;19994;-61
2021/10/14 03:26:19;;;;;;;4.35;3.95;;;;;;;5.27;87.66;96637.84;6366064;22;19999;-61
2021/10/14 03:28:45;;;;;;;4.07;3.78;;;;;;;5.23;89.07;96642.38;6366599;22;20005;-61
2021/10/14 03:31:10;;;;;;;3.83;3.53;;;;;;;5.24;88.62;96645.84;6366333;22;20002;-60
2021/10/14 03:33:36;;;;;;;10.95;10.05;;;;;;;5.25;88.08;96635.31;6367243;22;20005;-61
2021/10/14 03:36:02;;;;;;;4.28;3.72;;;;;;;5.28;87.07;96636.91;6366573;22;20043;-61
2021/10/14 03:38:28;;;;;;;4.10;3.40;;;;;;;5.27;88.11;96643.88;6366896;22;20413;-61
2021/10/14 03:40:53;;;;;;;3.60;3.30;;;;;;;5.25;87.29;96644.91;6366477;22;20025;-61
2021/10/14 03:43:18;;;;;;;3.70;3.22;;;;;;;5.24;86.28;96648.47;6364772;22;20396;-61
2021/10/14 03:45:44;;;;;;;2.75;2.65;;;;;;;5.26;86.57;96644.00;6365608;22;20429;-61
2021/10/14 03:48:10;;;;;;;3.50;3.30;;;;;;;5.28;86.79;96650.78;6366153;22;20005;-61
2021/10/14 03:50:35;;;;;;;3.67;3.33;;;;;;;5.30;86.54;96645.50;6367156;22;20484;-61
2021/10/14 03:53:00;;;;;;;3.72;3.25;;;;;;;5.30;86.23;96646.34;6366401;22;20357;-61
2021/10/14 03:55:26;;;;;;;3.85;3.60;;;;;;;5.32;86.57;96650.66;6366304;22;20006;-61
2021/10/14 03:57:51;;;;;;;4.78;3.35;;;;;;;5.29;86.52;96662.09;6366146;22;20434;-61
2021/10/14 04:00:16;;;;;;;3.65;3.40;;;;;;;5.28;87.77;96658.63;6366580;22;20036;-61
2021/10/14 04:02:42;;;;;;;3.88;3.50;;;;;;;5.29;87.78;96662.91;6364657;22;20002;-60
2021/10/14 04:05:08;;;;;;;3.70;3.40;;;;;;;5.33;87.74;96657.56;6366126;22;19998;-61
2021/10/14 04:07:33;;;;;;;4.05;3.45;;;;;;;5.38;87.05;96665.97;6366130;22;20037;-61
2021/10/14 04:09:59;;;;;;;3.47;3.17;;;;;;;5.38;87.20;96658.94;6366478;22;19998;-61
2021/10/14 04:12:24;;;;;;;3.85;3.55;;;;;;;5.38;87.50;96660.75;6366132;22;20236;-61
2021/10/14 04:14:50;;;;;;;3.45;3.25;;;;;;;5.39;88.23;96665.03;6366193;22;20006;-61
2021/10/14 04:17:15;;;;;;;3.25;3.00;;;;;;;5.40;87.67;96666.72;6366610;22;20426;-61
2021/10/14 04:19:41;;;;;;;33.00;22.77;;;;;;;5.38;88.09;96661.56;6366574;22;20458;-61
2021/10/14 04:22:07;;;;;;;26.55;18.30;;;;;;;5.38;87.85;96672.00;6366693;22;20576;-61
2021/10/14 04:24:33;;;;;;;7.05;5.78;;;;;;;5.37;87.74;96667.72;6364230;22;20014;-61
2021/10/14 04:26:58;;;;;;;6.40;4.75;;;;;;;5.39;87.07;96660.63;6364602;22;20012;-61
2021/10/14 04:29:24;;;;;;;3.95;3.38;;;;;;;5.43;87.46;96672.63;6366333;22;20002;-61
2021/10/14 04:31:50;;;;;;;3.33;3.13;;;;;;;5.44;86.37;96665.59;6365169;22;20002;-61
2021/10/14 04:34:16;;;;;;;8.07;4.60;;;;;;;5.44;86.75;96669.09;6366503;22;20005;-61
2021/10/14 04:36:42;;;;;;;10.13;8.95;;;;;;;5.42;87.00;96663.09;6366676;22;20006;-61
2021/10/14 04:39:08;;;;;;;6.18;5.57;;;;;;;5.44;87.02;96661.25;6366062;22;20008;-61
2021/10/14 04:41:34;;;;;;;6.30;5.35;;;;;;;5.49;87.49;96657.53;6365971;22;20339;-61
2021/10/14 04:43:59;;;;;;;6.78;5.40;;;;;;;5.51;87.44;96661.72;6364391;22;20006;-61
2021/10/14 04:46:25;;;;;;;6.18;5.57;;;;;;;5.50;88.12;96656.59;6366038;22;20009;-61
2021/10/14 04:48:50;;;;;;;4.63;4.15;;;;;;;5.51;86.74;96660.88;6365557;22;20350;-61
2021/10/14 04:51:16;;;;;;;7.22;4.47;;;;;;;5.52;87.17;96663.41;6365990;22;20003;-61
2021/10/14 04:53:41;;;;;;;5.22;4.68;;;;;;;5.54;87.34;96660.72;6366118;22;20005;-61
2021/10/14 04:56:07;;;;;;;5.55;4.82;;;;;;;5.58;87.41;96670.06;6365790;22;20006;-61
2021/10/14 04:58:32;;;;;;;8.25;6.68;;;;;;;5.58;88.28;96659.59;6365815;22;20010;-61
2021/10/14 05:00:58;;;;;;;7.80;5.97;;;;;;;5.59;88.20;96656.06;6365489;22;20431;-61
2021/10/14 05:03:24;;;;;;;4.68;4.28;;;;;;;5.59;86.89;96654.31;6366196;22;20002;-61
2021/10/14 05:05:49;;;;;;;3.97;3.67;;;;;;;5.59;86.75;96658.66;6365467;22;20002;-60
2021/10/14 05:08:15;;;;;;;4.57;4.20;;;;;;;5.58;86.68;96659.59;6365643;22;20056;-61
2021/10/14 05:10:40;;;;;;;3.97;3.67;;;;;;;5.58;85.76;96652.63;6365279;22;19999;-61
2021/10/14 05:13:06;;;;;;;5.18;3.67;;;;;;;5.59;86.82;96661.28;6365220;22;20070;-60
2021/10/14 05:15:32;;;;;;;3.90;3.60;;;;;;;5.57;86.34;96650.09;6365337;22;20345;-62
2021/10/14 05:17:57;;;;;;;4.30;4.00;;;;;;;5.57;86.47;96653.56;6365556;22;20002;-61
2021/10/14 05:20:22;;;;;;;5.15;4.47;;;;;;;5.55;86.83;96660.63;6364943;22;20025;-61
2021/10/14 05:22:48;;;;;;;4.15;3.85;;;;;;;5.54;87.06;96660.72;6366017;22;20055;-61
2021/10/14 05:25:13;;;;;;;4.25;3.90;;;;;;;5.55;86.36;96659.78;6365929;22;19998;-60
2021/10/14 05:27:39;;;;;;;3.90;3.55;;;;;;;5.55;85.33;96662.41;6365009;22;19998;-60
2021/10/14 05:30:05;;;;;;;3.55;3.25;;;;;;;5.55;84.24;96667.63;6364964;22;20085;-61
2021/10/14 05:32:30;;;;;;;3.78;3.58;;;;;;;5.56;84.53;96669.31;6365625;22;20025;-60
2021/10/14 05:34:56;;;;;;;3.33;3.05;;;;;;;5.54;84.35;96664.19;6365121;22;20345;-61
2021/10/14 05:37:21;;;;;;;3.20;2.95;;;;;;;5.56;84.79;96666.69;6363733;22;20006;-60
2021/10/14 05:39:47;;;;;;;3.05;2.85;;;;;;;5.54;83.98;96671.16;6363967;22;20065;-61
2021/10/14 05:42:12;;;;;;;5.05;3.60;;;;;;;5.50;84.86;96665.25;6363688;22;20006;-61
2021/10/14 05:44:37;;;;;;;7.28;4.20;;;;;;;5.51;85.68;96673.94;6364593;22;20006;-61
2021/10/14 05:47:03;;;;;;;6.43;3.95;;;;;;;5.53;84.95;96672.94;6362830;22;20002;-61
2021/10/14 05:49:28;;;;;;;4.03;3.72;;;;;;;5.58;85.27;96683.97;6364201;22;20355;-61
2021/10/14 05:51:54;;;;;;;6.15;4.22;;;;;;;5.59;84.52;96687.41;6363394;22;20002;-60
2021/10/14 05:54:19;;;;;;;3.55;3.13;;;;;;;5.56;84.07;96683.22;6365261;22;20003;-60
2021/10/14 05:56:45;;;;;;;4.50;3.63;;;;;;;5.55;84.33;96688.53;6364725;22;20014;-60
2021/10/14 05:59:10;;;;;;;4.53;3.40;;;;;;;5.53;84.00;96693.00;6365382;22;20010;-60
2021/10/14 06:01:35;;;;;;;3.70;3.40;;;;;;;5.52;84.33;96691.31;6365613;22;20009;-60
2021/10/14 06:04:01;;;;;;;3.75;3.22;;;;;;;5.55;84.15;96688.53;6362370;22;20097;-61
2021/10/14 06:06:26;;;;;;;3.40;3.15;;;;;;;5.52;83.46;96688.69;6363528;22;20091;-60
2021/10/14 06:08:51;;;;;;;3.95;3.30;;;;;;;5.50;83.49;96695.78;6364765;22;20384;-61
2021/10/14 06:11:17;;;;;;;3.40;3.20;;;;;;;5.49;83.35;96689.69;6364832;22;20006;-60
2021/10/14 06:13:42;;;;;;;3.50;3.20;;;;;;;5.48;83.30;96692.41;6362937;22;20002;-59
2021/10/14 06:16:08;;;;;;;6.75;3.25;;;;;;;5.49;82.91;96701.94;6364377;22;20010;-60
2021/10/14 06:18:34;;;;;;;2.97;2.78;;;;;;;5.45;82.45;96686.44;6364614;22;20037;-60
2021/10/14 06:20:59;;;;;;;3.05;2.83;;;;;;;5.44;83.18;96683.91;6363867;22;20006;-60
2021/10/14 06:23:25;;;;;;;3.97;3.42;;;;;;;5.44;82.60;96692.59;6363844;22;20455;-60
2021/10/14 06:25:50;;;;;;;8.45;3.40;;;;;;;5.45;82.67;96685.56;6365629;22;20006;-61
2021/10/14 06:28:16;;;;;;;3.28;3.08;;;;;;;5.44;82.18;96695.19;6364645;22;20317;-61
2021/10/14 06:30:41;;;;;;;3.22;2.85;;;;;;;5.48;82.42;96692.41;6364956;22;20010;-61
2021/10/14 06:33:06;;;;;;;3.75;3.45;;;;;;;5.53;82.44;96693.00;6365564;22;20438;-61
2021/10/14 06:35:32;;;;;;;5.65;4.15;;;;;;;5.54;81.56;96692.06;6363394;22;20006;-61
2021/10/14 06:37:58;;;;;;;4.60;4.10;;;;;;;5.58;81.13;96690.94;6364553;22;20003;-61
2021/10/14 06:40:24;;;;;;;6.18;4.30;;;;;;;5.59;80.50;96690.03;6364905;22;20037;-61
2021/10/14 06:42:49;;;;;;;5.18;4.68;;;;;;;5.60;81.08;96691.69;6365005;22;20002;-61
2021/10/14 06:45:14;;;;;;;11.18;8.77;;;;;;;5.62;80.67;96689.84;6364747;22;20383;-61
2021/10/14 06:47:40;;;;;;;15.63;9.80;;;;;;;5.64;80.49;96689.78;6365072;22;20003;-61
2021/10/14 06:50:06;;;;;;;10.93;9.18;;;;;;;5.63;80.80;96690.69;6365416;22;20380;-61
2021/10/14 06:52:32;;;;;;;12.00;8.63;;;;;;;5.69;80.56;96687.72;6365248;22;20003;-61
2021/10/14 06:54:58;;;;;;;7.90;6.78;;;;;;;5.77;80.18;96687.31;6365987;22;20429;-63
2021/10/14 06:57:24;;;;;;;11.00;9.20;;;;;;;5.88;80.00;96693.59;6367303;22;20002;-61
2021/10/14 06:59:49;;;;;;;8.02;6.03;;;;;;;5.87;80.03;96691.09;6366931;22;20457;-61
2021/10/14 07:02:15;;;;;;;6.55;5.18;;;;;;;5.88;80.26;96696.22;6367336;22;20318;-61
2021/10/14 07:04:40;;;;;;;4.85;4.35;;;;;;;5.89;80.49;96704.91;6366779;22;20006;-63
2021/10/14 07:07:05;;;;;;;7.53;3.67;;;;;;;5.96;80.71;96706.22;6366465;22;20429;-62
2021/10/14 07:09:31;;;;;;;4.88;4.47;;;;;;;5.97;80.26;96710.53;6365984;22;20005;-62
2021/10/14 07:11:59;;;;;;;4.50;4.20;;;;;;;5.95;80.46;96704.53;6367009;22;20003;-63
2021/10/14 07:14:25;;;;;;;4.07;3.72;;;;;;;5.97;80.60;96715.75;6365866;22;20501;-63
2021/10/14 07:16:50;;;;;;;4.40;3.97;;;;;;;5.97;81.03;96718.38;6366823;22;20002;-64
2021/10/14 07:19:16;;;;;;;3.97;3.67;;;;;;;6.05;80.54;96724.94;6366154;22;20345;-63
2021/10/14 07:21:41;;;;;;;4.28;3.90;;;;;;;6.02;80.64;96723.38;6366528;22;20002;-63
2021/10/14 07:24:07;;;;;;;4.03;3.55;;;;;;;6.09;80.83;96736.94;6366588;22;19998;-63
2021/10/14 07:26:33;;;;;;;6.68;3.53;;;;;;;6.18;80.70;96738.16;6366442;22;20051;-62
2021/10/14 07:29:02;;;;;;;3.80;3.35;;;;;;;6.29;80.11;96741.81;6366677;22;20010;-60
2021/10/14 07:31:28;;;;;;;6.13;3.45;;;;;;;6.28;79.74;96742.75;6366937;22;19998;-61
2021/10/14 07:33:53;;;;;;;5.45;3.58;;;;;;;6.26;79.76;96747.25;6367350;22;20376;-61
2021/10/14 07:36:18;;;;;;;3.85;3.40;;;;;;;6.27;78.75;96748.91;6366209;22;20406;-61
2021/10/14 07:38:44;;;;;;;4.15;3.85;;;;;;;6.33;79.66;96749.53;6366502;22;20025;-61
2021/10/14 07:41:09;;;;;;;6.05;3.75;;;;;;;6.30;79.84;96754.00;6365552;22;20010;-62
2021/10/14 07:43:35;;;;;;;4.35;4.05;;;;;;;6.32;80.27;96753.06;6365184;22;20059;-62
2021/10/14 07:46:01;;;;;;;4.70;4.30;;;;;;;6.37;80.94;96753.63;6367080;22;20010;-61
2021/10/14 07:48:27;;;;;;;5.45;5.05;;;;;;;6.43;80.51;96758.50;6366508;22;20060;-62
2021/10/14 07:50:53;;;;;;;4.45;4.05;;;;;;;6.45;81.27;96756.63;6366474;22;20002;-62
2021/10/14 07:53:19;;;;;;;4.72;4.32;;;;;;;6.46;80.27;96758.31;6365916;22;20002;-62
2021/10/14 07:55:46;;;;;;;5.93;4.15;;;;;;;6.43;79.63;96755.88;6364841;22;20014;-62
2021/10/14 07:58:11;;;;;;;4.43;4.05;;;;;;;6.40;79.80;96759.50;6364913;22;20051;-61
2021/10/14 08:00:38;;;;;;;4.45;4.05;;;;;;;6.39;79.44;96759.63;6367072;22;20077;-61
2021/10/14 08:03:04;;;;;;;5.03;4.63;;;;;;;6.37;79.47;96759.69;6367083;22;20002;-61
2021/10/14 08:05:29;;;;;;;5.93;4.25;;;;;;;6.42;79.36;96762.91;6366155;22;20013;-61
2021/10/14 08:07:55;;;;;;;4.97;4.13;;;;;;;6.43;79.49;96763.72;6366977;22;20327;-62
2021/10/14 08:10:20;;;;;;;4.00;3.80;;;;;;;6.47;79.09;96772.25;6365136;22;20324;-61
2021/10/14 08:12:46;;;;;;;4.22;3.92;;;;;;;6.50;79.43;96770.28;6366963;22;20085;-61
2021/10/14 08:15:11;;;;;;;4.38;3.97;;;;;;;6.56;78.77;96772.56;6366766;22;20009;-61
2021/10/14 08:17:37;;;;;;;4.03;3.67;;;;;;;6.61;78.59;96766.19;6367017;22;20009;-61
2021/10/14 08:20:05;;;;;;;4.47;4.13;;;;;;;6.59;78.03;96764.53;6366346;22;20018;-61
2021/10/14 08:22:30;;;;;;;5.95;5.45;;;;;;;6.65;78.33;96765.09;6366693;22;19998;-61
2021/10/14 08:24:58;;;;;;;6.18;5.65;;;;;;;6.72;78.04;96759.41;6366360;22;20003;-61
2021/10/14 08:27:24;;;;;;;7.40;5.60;;;;;;;6.83;77.93;96763.13;6366678;22;20061;-62
2021/10/14 08:29:49;;;;;;;7.75;7.15;;;;;;;6.91;78.22;96762.66;6366501;22;20315;-60
2021/10/14 08:32:14;;;;;;;5.90;5.30;;;;;;;6.91;77.42;96760.06;6366622;22;20071;-61
2021/10/14 08:34:40;;;;;;;4.15;3.85;;;;;;;6.94;76.14;96776.44;6366839;22;20005;-62
2021/10/14 08:37:05;;;;;;;4.40;4.00;;;;;;;6.89;77.11;96765.41;6366416;22;20078;-60
2021/10/14 08:39:31;;;;;;;9.65;4.63;;;;;;;6.87;76.19;96768.09;6364979;22;20091;-61
2021/10/14 08:41:56;;;;;;;4.68;4.20;;;;;;;6.95;76.08;96764.16;6366699;22;20006;-61
2021/10/14 08:44:25;;;;;;;5.60;3.58;;;;;;;7.01;75.99;96762.03;6366627;22;20055;-61
2021/10/14 08:46:52;;;;;;;4.63;4.22;;;;;;;7.13;76.37;96764.84;6367068;22;20330;-61
2021/10/14 08:49:18;;;;;;;5.35;4.80;;;;;;;7.27;76.37;96766.59;6366249;22;20032;-61
2021/10/14 08:51:44;;;;;;;88.57;9.68;;;;;;;7.40;75.79;96762.25;6366148;22;20007;-61
2021/10/14 08:54:09;;;;;;;6.28;4.55;;;;;;;7.49;75.40;96762.66;6366386;22;20033;-61
2021/10/14 08:56:40;;;;;;;9.50;5.80;;;;;;;7.53;74.26;96762.38;6366261;22;20003;-61
2021/10/14 08:59:06;;;;;;;6.22;4.90;;;;;;;7.62;74.62;96766.16;6366214;22;20073;-61
2021/10/14 09:01:31;;;;;;;14.07;5.45;;;;;;;7.76;73.89;96749.56;6364735;22;20093;-61
2021/10/14 09:03:58;;;;;;;9.32;4.80;;;;;;;7.87;73.47;96743.66;6366314;22;19998;-61
2021/10/14 09:06:23;;;;;;;7.65;4.60;;;;;;;7.98;73.03;96743.78;6365976;22;20010;-61
2021/10/14 09:08:51;;;;;;;5.53;5.13;;;;;;;8.09;71.71;96734.38;6366585;22;20447;-61
2021/10/14 09:11:24;;;;;;;5.60;5.03;;;;;;;8.06;72.52;96740.66;6366260;22;20055;-61
2021/10/14 09:13:53;;;;;;;5.15;4.75;;;;;;;8.06;71.60;96734.56;6364311;22;20015;-61
2021/10/14 09:16:38;;;;;;;5.47;5.03;;;;;;;8.08;72.00;96730.91;6364184;22;20014;-60
2021/10/14 09:19:24;;;;;;;7.25;5.75;;;;;;;8.10;72.42;96733.44;6364176;22;20468;-61
2021/10/14 09:22:00;;;;;;;7.38;6.28;;;;;;;8.06;71.98;96724.06;6366672;22;20002;-60
2021/10/14 09:24:35;;;;;;;7.47;6.50;;;;;;;7.99;71.67;96718.41;6366050;22;20062;-60
2021/10/14 09:27:06;;;;;;;7.47;6.80;;;;;;;7.98;72.33;96719.34;6366041;22;20005;-61
2021/10/14 09:29:34;;;;;;;7.68;6.97;;;;;;;7.95;72.50;96712.50;6366059;22;20430;-60
2021/10/14 09:32:20;;;;;;;7.88;7.07;;;;;;;7.93;72.91;96711.78;6365893;22;19994;-60
2021/10/14 09:34:46;;;;;;;;;;;;;;;8.02;71.56;96712.94;6366807;22;19999;-61
2021/10/14 09:37:17;;;;;;;;;;;;;;;8.01;71.88;96706.84;6366141;22;19929;-60
2021/10/14 09:40:04;;;;;;;6.50;6.00;;;;;;;8.12;72.61;96693.03;6365542;22;19924;-59
2021/10/14 09:42:44;;;;;;;7.43;6.40;;;;;;;8.21;71.28;96682.88;6365965;22;19999;-60
2021/10/14 09:45:32;;;;;;;7.13;6.47;;;;;;;8.23;71.14;96694.94;6365525;22;20461;-60
2021/10/14 09:48:03;;;;;;;7.15;6.55;;;;;;;8.28;72.02;96690.22;6365517;22;20120;-60
2021/10/14 09:50:30;;;;;;;7.72;6.93;;;;;;;8.37;71.29;96690.56;6366068;22;20017;-60
2021/10/14 09:52:58;;;;;;;7.03;6.43;;;;;;;8.31;70.77;96682.16;6366504;22;20021;-60
2021/10/14 09:55:24;;;;;;;6.78;6.13;;;;;;;8.38;71.80;96677.31;6365778;22;20026;-60
2021/10/14 09:57:50;;;;;;;7.38;6.70;;;;;;;8.44;70.92;96682.16;6365548;22;20342;-60
2021/10/14 10:00:15;;;;;;;7.20;6.50;;;;;;;8.57;72.04;96683.97;6365438;22;20002;-60
2021/10/14 10:02:43;;;;;;;7.03;6.30;;;;;;;8.68;71.46;96678.84;6365770;22;20118;-60
2021/10/14 10:05:09;;;;;;;6.47;5.97;;;;;;;8.69;70.67;96675.25;6365737;22;20002;-60
2021/10/14 10:07:39;;;;;;;8.15;7.38;;;;;;;8.68;70.05;96684.09;6363761;22;20012;-60
2021/10/14 10:10:07;;;;;;;7.45;6.85;;;;;;;8.62;70.60;96684.53;6365508;22;20597;-60
2021/10/14 10:12:34;;;;;;;7.75;6.93;;;;;;;8.70;70.67;96682.19;6365622;22;20025;-60
2021/10/14 10:15:00;;;;;;;7.22;6.63;;;;;;;8.92;71.12;96674.59;6366450;22;20005;-60
2021/10/14 10:17:38;;;;;;;7.20;6.60;;;;;;;9.06;70.21;96677.09;6365705;22;20009;-59
2021/10/14 10:20:07;;;;;;;6.97;6.38;;;;;;;9.28;68.51;96673.81;6365562;22;20018;-61
2021/10/14 10:22:33;;;;;;;6.80;6.10;;;;;;;9.21;68.89;96667.28;6365527;22;20457;-61
2021/10/14 10:25:17;;;;;;;5.93;5.43;;;;;;;9.26;69.22;96672.22;6365516;22;20026;-60
2021/10/14 10:27:43;;;;;;;6.10;5.53;;;;;;;9.37;68.34;96668.81;6365416;22;20045;-61
2021/10/14 10:30:08;;;;;;;6.10;5.70;;;;;;;9.41;68.76;96657.13;6367157;22;19998;-60
2021/10/14 10:32:42;;;;;;;11.02;6.97;;;;;;;9.54;68.73;96657.09;6367889;22;20055;-60
2021/10/14 10:35:09;;;;;;;7.38;5.35;;;;;;;9.69;68.12;96657.75;6367832;22;20065;-61
2021/10/14 10:37:47;;;;;;;5.47;5.05;;;;;;;9.87;66.57;96666.09;6365886;22;20339;-61
2021/10/14 10:40:24;;;;;;;5.43;4.95;;;;;;;9.91;67.03;96661.41;6367372;22;20002;-61
2021/10/14 10:42:52;;;;;;;5.85;5.28;;;;;;;9.99;66.19;96659.91;6367546;22;20365;-62
2021/10/14 10:45:24;;;;;;;7.35;5.93;;;;;;;10.01;67.16;96650.09;6367340;22;20051;-61
2021/10/14 10:47:56;;;;;;;8.00;5.70;;;;;;;10.25;65.71;96656.28;6367660;22;20044;-62
2021/10/14 10:50:33;;;;;;;8.90;8.02;;;;;;;10.36;66.41;96652.81;6367388;22;20002;-61
2021/10/14 10:53:05;;;;;;;7.68;6.30;;;;;;;10.58;65.82;96644.13;6367621;22;20002;-61
2021/10/14 10:55:59;;;;;;;6.93;5.53;;;;;;;11.17;64.60;96640.44;6367427;22;20002;-61
2021/10/14 10:58:28;;;;;;;6.18;5.47;;;;;;;11.41;63.29;96635.94;6366211;22;20346;-61
2021/10/14 11:00:54;;;;;;;6.80;6.10;;;;;;;11.68;63.25;96637.28;6367705;22;20446;-61
2021/10/14 11:03:22;;;;;;;6.35;5.75;;;;;;;11.96;61.45;96635.84;6367517;22;20413;-61
2021/10/14 11:06:11;;;;;;;5.85;5.18;;;;;;;12.25;60.94;96629.94;6367477;22;20127;-61
2021/10/14 11:08:37;;;;;;;5.53;5.03;;;;;;;12.45;60.64;96624.78;6350875;22;20006;-61
2021/10/14 11:11:07;;;;;;;5.43;5.03;;;;;;;12.78;58.75;96625.50;6367603;22;20309;-61
2021/10/14 11:13:34;;;;;;;7.78;5.88;;;;;;;12.98;57.75;96609.72;6367497;22;20025;-61
2021/10/14 11:16:00;;;;;;;5.57;5.10;;;;;;;12.89;56.51;96609.53;6367404;22;20006;-61
2021/10/14 11:18:28;;;;;;;8.30;5.53;;;;;;;12.83;56.32;96611.91;6366174;22;20010;-61
2021/10/14 11:21:06;;;;;;;6.05;5.45;;;;;;;12.73;57.16;96606.59;6367297;22;20098;-61
2021/10/14 11:23:37;;;;;;;6.10;5.60;;;;;;;12.33;59.08;96605.53;6367501;22;20376;-61
2021/10/14 11:26:11;;;;;;;5.65;5.15;;;;;;;12.30;58.93;96601.38;6366993;22;20060;-60
2021/10/14 11:28:51;;;;;;;6.95;4.78;;;;;;;11.94;59.81;96589.44;6365811;22;20044;-61
2021/10/14 11:31:32;;;;;;;6.70;6.05;;;;;;;12.06;61.08;96587.63;6367380;22;20009;-61
2021/10/14 11:34:25;;;;;;;7.18;4.88;;;;;;;12.29;59.90;96581.22;6367450;22;20010;-61
2021/10/14 11:36:50;;;;;;;5.28;4.78;;;;;;;12.24;59.26;96578.13;6361946;22;20093;-61
2021/10/14 11:39:16;;;;;;;5.05;4.65;;;;;;;11.90;60.12;96573.84;6367425;22;20030;-61
2021/10/14 11:41:42;;;;;;;6.32;4.28;;;;;;;11.75;59.67;96575.97;6366809;22;20007;-61